Time;durP1;ratioP1;P1;durP2;ratioP2;P2;SDS_P1;SDS_P2;PMS_P1;PMS_P2;Temp;Humidity;BMP_temperature;BMP_pressure;BME280_temperature;BME280_humidity;BME280_pressure;Samples;Min_cycle;Max_cycle;Signal;HPM_P1;HPM_P2
2021/09/08 00:00:37;;;;;;;0.17;0.17;;;21.00;92.90;;;;;;5095618;28;20054;-86
2021/09/08 00:03:03;;;;;;;0.50;0.38;;;20.90;93.30;;;;;;5100512;28;20125;-86
2021/09/08 00:05:29;;;;;;;0.32;0.25;;;20.90;93.60;;;;;;5105598;28;20031;-86
2021/09/08 00:07:55;;;;;;;0.20;0.20;;;20.90;93.30;;;;;;5106594;27;20055;-87
2021/09/08 00:10:20;;;;;;;0.20;0.20;;;20.80;93.50;;;;;;5107981;28;20035;-87
2021/09/08 00:12:46;;;;;;;0.00;0.00;;;21.00;93.70;;;;;;5104695;27;20764;-87
2021/09/08 00:15:13;;;;;;;0.37;0.30;;;21.00;93.80;;;;;;5094668;28;20028;-86
2021/09/08 00:17:38;;;;;;;;;;;20.70;94.00;;;;;;5101570;27;20042;-87
2021/09/08 00:20:06;;;;;;;0.20;0.20;;;20.60;94.30;;;;;;5099509;27;19911;-87
2021/09/08 00:22:31;;;;;;;0.95;0.15;;;20.60;94.90;;;;;;5103753;27;20146;-87
2021/09/08 00:24:57;;;;;;;0.43;0.43;;;21.00;94.80;;;;;;5103741;28;20161;-87
2021/09/08 00:27:23;;;;;;;12.10;0.45;;;21.00;94.30;;;;;;5105461;28;20039;-88
2021/09/08 00:29:49;;;;;;;0.00;0.00;;;21.00;94.40;;;;;;5105361;27;20043;-88
2021/09/08 00:32:15;;;;;;;0.10;0.10;;;20.90;94.50;;;;;;5103804;28;20032;-87
2021/09/08 00:34:41;;;;;;;0.13;0.13;;;21.00;94.50;;;;;;5097454;28;20073;-88
2021/09/08 00:37:06;;;;;;;0.07;0.07;;;21.00;94.80;;;;;;5101105;28;20454;-89
2021/09/08 00:39:32;;;;;;;0.25;0.25;;;20.90;95.00;;;;;;5104157;27;20020;-87
2021/09/08 00:41:58;;;;;;;0.17;0.17;;;20.90;94.90;;;;;;5104461;27;20051;-88
2021/09/08 00:44:26;;;;;;;3.53;1.20;;;20.80;94.90;;;;;;5101968;28;20512;-89
2021/09/08 00:46:52;;;;;;;0.30;0.30;;;20.70;90.10;;;;;;5105322;28;20039;-87
2021/09/08 00:49:17;;;;;;;0.47;0.20;;;20.50;95.60;;;;;;5103664;28;20023;-89
2021/09/08 00:51:45;;;;;;;0.40;0.40;;;20.50;96.10;;;;;;5100233;27;20031;-87
2021/09/08 00:54:15;;;;;;;0.45;0.43;;;20.50;96.50;;;;;;5102212;28;20050;-87
2021/09/08 00:56:43;;;;;;;0.55;0.55;;;20.20;97.00;;;;;;5096315;28;20055;-87
2021/09/08 00:59:09;;;;;;;0.20;0.20;;;20.20;98.10;;;;;;5105013;27;20417;-88
2021/09/08 01:01:34;;;;;;;1.13;0.25;;;20.10;98.20;;;;;;5107887;27;20050;-87
2021/09/08 01:04:00;;;;;;;0.87;0.57;;;19.90;98.70;;;;;;5101682;28;20026;-87
2021/09/08 01:06:26;;;;;;;0.10;0.10;;;19.90;99.10;;;;;;5100061;28;20825;-86
2021/09/08 01:08:54;;;;;;;0.20;0.20;;;20.00;99.60;;;;;;5102651;28;20584;-87
2021/09/08 01:11:20;;;;;;;2.63;1.38;;;20.00;99.80;;;;;;5098712;28;20398;-86
2021/09/08 01:13:46;;;;;;;0.20;0.20;;;20.20;99.60;;;;;;5102840;27;20078;-86
2021/09/08 01:16:12;;;;;;;0.30;0.30;;;20.30;99.00;;;;;;5099866;28;20040;-86
2021/09/08 01:18:37;;;;;;;0.00;0.00;;;20.10;99.80;;;;;;5094826;28;20031;-87
2021/09/08 01:21:04;;;;;;;0.63;0.40;;;20.00;99.90;;;;;;5105817;27;20039;-86
2021/09/08 01:23:31;;;;;;;0.60;0.43;;;19.70;99.90;;;;;;5096970;28;20119;-87
2021/09/08 01:26:03;;;;;;;2.58;1.13;;;19.50;99.90;;;;;;5102058;28;20035;-87
2021/09/08 01:28:29;;;;;;;0.65;0.40;;;19.40;99.90;;;;;;5105117;28;20031;-87
2021/09/08 01:30:56;;;;;;;0.20;0.20;;;19.30;99.90;;;;;;5104315;28;20031;-86
2021/09/08 01:33:22;;;;;;;0.32;0.25;;;19.40;99.90;;;;;;5100135;28;20402;-87
2021/09/08 01:35:48;;;;;;;0.00;0.00;;;19.30;99.90;;;;;;5095190;28;20031;-87
2021/09/08 01:38:15;;;;;;;0.20;0.20;;;19.40;99.90;;;;;;5101580;28;20061;-87
2021/09/08 01:40:41;;;;;;;1.85;0.80;;;19.40;99.90;;;;;;5099731;27;20414;-87
2021/09/08 01:43:06;;;;;;;0.20;0.20;;;19.40;99.90;;;;;;5100852;27;20047;-87
2021/09/08 01:45:32;;;;;;;0.20;0.20;;;19.50;99.90;;;;;;5100358;28;20490;-86
2021/09/08 01:47:58;;;;;;;0.20;0.20;;;19.70;99.90;;;;;;5101348;28;20051;-87
2021/09/08 01:50:24;;;;;;;1.05;0.88;;;19.60;99.90;;;;;;5098874;28;20028;-87
2021/09/08 01:52:50;;;;;;;0.25;0.22;;;19.40;99.90;;;;;;5100866;28;20666;-87
2021/09/08 01:55:17;;;;;;;0.30;0.25;;;19.50;99.90;;;;;;5104444;28;20525;-87
2021/09/08 01:57:43;;;;;;;6.40;0.88;;;19.40;99.90;;;;;;5100256;28;20065;-87
2021/09/08 02:00:11;;;;;;;0.40;0.25;;;19.40;99.90;;;;;;5096685;28;20036;-87
2021/09/08 02:02:36;;;;;;;1.10;0.55;;;19.30;99.90;;;;;;5100497;28;20031;-85
2021/09/08 02:05:03;;;;;;;0.50;0.50;;;19.40;99.90;;;;;;5099499;27;20030;-86
2021/09/08 02:07:28;;;;;;;1.15;0.30;;;19.60;99.90;;;;;;5112924;27;20048;-86
2021/09/08 02:09:54;;;;;;;1.23;0.40;;;19.70;99.90;;;;;;5099688;28;20036;-87
2021/09/08 02:12:20;;;;;;;0.33;0.30;;;19.50;99.90;;;;;;5101600;28;20035;-87
2021/09/08 02:14:45;;;;;;;0.23;0.20;;;19.60;99.90;;;;;;5097575;28;20047;-86
2021/09/08 02:17:11;;;;;;;0.30;0.30;;;19.70;99.90;;;;;;5091932;27;20031;-86
2021/09/08 02:19:37;;;;;;;0.20;0.20;;;19.50;99.90;;;;;;5094668;27;20826;-86
2021/09/08 02:22:03;;;;;;;0.60;0.60;;;19.40;99.90;;;;;;5099446;27;20040;-87
2021/09/08 02:24:28;;;;;;;0.13;0.13;;;19.40;99.90;;;;;;5097829;28;20034;-87
2021/09/08 02:26:54;;;;;;;2.17;0.53;;;19.60;99.90;;;;;;5096781;28;20612;-86
2021/09/08 02:29:20;;;;;;;0.20;0.20;;;19.70;99.90;;;;;;5094132;28;20110;-86
2021/09/08 02:31:45;;;;;;;0.30;0.30;;;19.50;99.90;;;;;;5100750;28;20420;-86
2021/09/08 02:34:11;;;;;;;0.20;0.20;;;19.60;99.90;;;;;;5102747;28;20034;-87
2021/09/08 02:36:37;;;;;;;0.13;0.13;;;19.60;99.90;;;;;;5099144;28;21057;-86
2021/09/08 02:39:03;;;;;;;0.20;0.20;;;19.60;99.90;;;;;;5095707;28;20028;-86
2021/09/08 02:41:29;;;;;;;0.20;0.20;;;19.90;99.90;;;;;;5097336;27;20035;-87
2021/09/08 02:43:55;;;;;;;0.73;0.20;;;19.90;99.90;;;;;;5092546;28;20032;-87
2021/09/08 02:46:20;;;;;;;0.20;0.20;;;19.90;99.90;;;;;;5099680;28;20040;-87
2021/09/08 02:48:46;;;;;;;0.10;0.10;;;19.80;99.90;;;;;;5100719;27;20035;-86
2021/09/08 02:51:12;;;;;;;0.10;0.10;;;19.70;99.90;;;;;;5091251;28;20640;-85
2021/09/08 02:53:38;;;;;;;13.80;1.00;;;19.90;99.90;;;;;;5094744;28;20616;-86
2021/09/08 02:56:04;;;;;;;1.53;0.40;;;19.90;99.90;;;;;;5097925;28;20138;-85
2021/09/08 02:58:30;;;;;;;0.32;0.20;;;19.90;99.90;;;;;;5092335;28;20026;-86
2021/09/08 03:00:56;;;;;;;0.47;0.30;;;20.10;99.90;;;;;;5097996;27;20039;-87
2021/09/08 03:03:22;;;;;;;0.52;0.52;;;20.00;99.90;;;;;;5097892;28;20031;-86
2021/09/08 03:05:49;;;;;;;0.35;0.35;;;20.00;99.90;;;;;;5098402;28;20117;-85
2021/09/08 03:08:15;;;;;;;;;;;20.20;99.90;;;;;;5100709;28;20058;-86
2021/09/08 03:10:43;;;;;;;0.08;0.08;;;20.10;99.90;;;;;;5103678;27;19916;-84
2021/09/08 03:15:45;;;;;;;2.63;0.52;;;20.10;99.90;;;;;;5982597;22;20061;-89
2021/09/08 03:18:11;;;;;;;0.40;0.40;;;20.20;99.90;;;;;;5184369;22;20108;-83
2021/09/08 03:20:37;;;;;;;8.82;0.50;;;20.30;99.90;;;;;;5130564;22;20052;-89
2021/09/08 03:23:02;;;;;;;1.30;1.20;;;20.20;99.90;;;;;;5119546;27;20116;-89
2021/09/08 03:25:29;;;;;;;0.10;0.10;;;20.00;99.90;;;;;;5117179;27;20043;-89
2021/09/08 03:27:55;;;;;;;0.45;0.28;;;19.90;99.90;;;;;;5120534;27;20023;-88
2021/09/08 03:30:21;;;;;;;0.43;0.43;;;20.10;99.90;;;;;;5118991;27;20059;-89
2021/09/08 03:32:47;;;;;;;0.88;0.60;;;19.90;99.90;;;;;;5123666;27;20031;-89
2021/09/08 03:35:13;;;;;;;0.00;0.00;;;19.90;99.90;;;;;;5122388;27;20039;-89
2021/09/08 03:37:38;;;;;;;0.40;0.40;;;19.80;99.90;;;;;;5122266;27;20073;-90
2021/09/08 03:40:05;;;;;;;0.17;0.17;;;19.70;99.90;;;;;;5121577;27;20034;-89
2021/09/08 03:42:32;;;;;;;0.63;0.40;;;19.70;99.90;;;;;;5121686;27;20539;-89
2021/09/08 03:44:58;;;;;;;0.10;0.10;;;19.60;99.90;;;;;;5120480;27;20030;-89
2021/09/08 03:47:24;;;;;;;0.67;0.30;;;19.60;99.90;;;;;;5118927;27;20046;-88
2021/09/08 03:49:49;;;;;;;0.87;0.50;;;19.50;99.90;;;;;;5123575;27;20392;-88
2021/09/08 03:52:18;;;;;;;0.30;0.30;;;19.40;99.90;;;;;;5119371;27;20736;-88
2021/09/08 03:54:44;;;;;;;0.50;0.40;;;19.60;99.90;;;;;;5113935;27;20050;-89
2021/09/08 03:57:10;;;;;;;0.20;0.20;;;19.60;99.90;;;;;;5121383;27;20031;-88
2021/09/08 03:59:39;;;;;;;0.00;0.00;;;19.50;99.90;;;;;;5120762;27;20035;-89
2021/09/08 04:02:05;;;;;;;0.30;0.22;;;19.30;99.90;;;;;;5108857;27;20047;-88
2021/09/08 04:04:31;;;;;;;0.17;0.17;;;19.30;99.90;;;;;;5123449;28;20035;-89
2021/09/08 04:06:57;;;;;;;1.35;0.70;;;19.40;99.90;;;;;;5118240;27;20031;-88
2021/09/08 04:09:22;;;;;;;0.22;0.22;;;19.40;99.90;;;;;;5109332;28;20815;-88
2021/09/08 04:11:48;;;;;;;0.10;0.10;;;19.50;99.90;;;;;;5123196;28;20059;-88
2021/09/08 04:14:14;;;;;;;0.40;0.40;;;19.40;99.90;;;;;;5122527;27;20453;-89
2021/09/08 04:16:39;;;;;;;0.67;0.27;;;19.30;99.90;;;;;;5108898;28;20451;-88
2021/09/08 04:19:05;;;;;;;10.57;0.47;;;19.40;99.90;;;;;;5115332;28;20147;-89
2021/09/08 04:21:31;;;;;;;0.10;0.10;;;19.40;99.90;;;;;;5121276;28;20032;-88
2021/09/08 04:23:57;;;;;;;0.73;0.50;;;19.30;99.90;;;;;;5121695;28;20023;-90
2021/09/08 04:26:23;;;;;;;0.10;0.10;;;19.30;99.90;;;;;;5120913;28;20023;-88
2021/09/08 04:28:49;;;;;;;0.20;0.20;;;19.30;99.90;;;;;;5123289;28;20118;-89
2021/09/08 04:31:15;;;;;;;0.40;0.20;;;19.40;99.90;;;;;;5106680;28;20695;-88
2021/09/08 04:33:41;;;;;;;0.22;0.22;;;19.30;99.90;;;;;;5116225;28;20023;-89
2021/09/08 04:36:07;;;;;;;0.27;0.23;;;19.40;99.90;;;;;;5120919;28;20039;-88
2021/09/08 04:38:33;;;;;;;0.00;0.00;;;19.30;99.90;;;;;;5120311;28;20501;-88
2021/09/08 04:40:59;;;;;;;0.22;0.22;;;19.20;99.90;;;;;;5115532;27;20501;-89
2021/09/08 04:43:24;;;;;;;0.30;0.30;;;19.20;99.90;;;;;;5117656;28;20092;-89
2021/09/08 04:45:50;;;;;;;0.20;0.20;;;19.10;99.90;;;;;;5120629;28;20475;-88
2021/09/08 04:48:16;;;;;;;0.40;0.40;;;19.10;99.90;;;;;;5110951;28;20504;-87
2021/09/08 04:50:42;;;;;;;0.67;0.67;;;19.20;99.90;;;;;;5119343;27;20031;-88
2021/09/08 04:53:08;;;;;;;0.20;0.20;;;19.40;99.90;;;;;;5126209;27;20700;-87
2021/09/08 04:55:34;;;;;;;0.50;0.50;;;19.40;99.90;;;;;;5126311;27;20038;-87
2021/09/08 04:58:00;;;;;;;0.30;0.30;;;19.40;99.90;;;;;;5124617;27;20397;-87
2021/09/08 05:00:26;;;;;;;0.30;0.30;;;19.40;99.90;;;;;;5123899;27;20030;-87
2021/09/08 05:02:52;;;;;;;0.10;0.10;;;19.30;99.90;;;;;;5124547;27;20039;-87
2021/09/08 05:05:18;;;;;;;0.07;0.07;;;19.40;99.90;;;;;;5124302;27;20058;-88
2021/09/08 05:07:44;;;;;;;0.20;0.20;;;19.50;99.90;;;;;;5115076;27;20039;-88
2021/09/08 05:10:10;;;;;;;0.43;0.43;;;19.40;99.90;;;;;;5123377;27;20039;-87
2021/09/08 05:12:36;;;;;;;0.47;0.38;;;19.30;99.90;;;;;;5125314;27;20114;-85
2021/09/08 05:15:03;;;;;;;0.10;0.10;;;19.30;99.90;;;;;;5121440;27;20059;-87
2021/09/08 05:17:28;;;;;;;0.43;0.13;;;19.20;99.90;;;;;;5112906;27;20203;-88
2021/09/08 05:19:54;;;;;;;1.30;0.20;;;19.10;99.90;;;;;;5120631;27;20582;-88
2021/09/08 05:22:19;;;;;;;0.40;0.40;;;19.10;99.90;;;;;;5123292;27;20039;-86
2021/09/08 05:24:45;;;;;;;0.10;0.10;;;19.20;99.90;;;;;;5099931;27;20774;-85
2021/09/08 05:27:11;;;;;;;1.47;0.53;;;19.10;99.90;;;;;;5111190;27;20512;-89
2021/09/08 05:29:36;;;;;;;0.63;0.57;;;19.20;99.90;;;;;;5113009;27;20030;-89
2021/09/08 05:32:03;;;;;;;0.40;0.40;;;19.30;99.90;;;;;;5103522;27;20106;-88
2021/09/08 05:34:29;;;;;;;0.60;0.57;;;19.30;99.90;;;;;;5121883;27;20054;-89
2021/09/08 05:36:54;;;;;;;0.33;0.33;;;19.40;99.90;;;;;;5116920;27;20032;-89
2021/09/08 05:39:20;;;;;;;1.23;1.03;;;19.40;99.90;;;;;;5113390;27;20028;-89
2021/09/08 05:41:46;;;;;;;3.80;0.50;;;19.50;99.90;;;;;;5120080;27;20547;-86
2021/09/08 05:44:11;;;;;;;1.60;1.00;;;19.70;99.90;;;;;;5123522;27;20027;-86
2021/09/08 05:46:37;;;;;;;0.93;0.33;;;19.70;99.90;;;;;;5125781;27;20031;-87
2021/09/08 05:49:03;;;;;;;0.20;0.20;;;20.00;99.90;;;;;;5124879;27;20381;-84
2021/09/08 05:51:29;;;;;;;1.08;0.80;;;20.50;99.90;;;;;;5125877;27;20039;-84
2021/09/08 05:53:54;;;;;;;1.27;0.40;;;20.70;99.90;;;;;;5125345;27;20023;-85
2021/09/08 05:56:20;;;;;;;0.00;0.00;;;20.80;99.90;;;;;;5125566;27;20035;-90
2021/09/08 05:58:46;;;;;;;0.07;0.07;;;20.80;99.90;;;;;;5127247;27;20442;-90
2021/09/08 06:01:12;;;;;;;1.65;0.70;;;20.90;99.90;;;;;;5121055;27;20156;-88
2021/09/08 06:03:37;;;;;;;0.50;0.50;;;21.40;99.90;;;;;;5126112;27;20027;-90
2021/09/08 06:06:03;;;;;;;0.30;0.30;;;22.20;99.90;;;;;;5126781;27;20031;-90
2021/09/08 06:08:30;;;;;;;0.30;0.30;;;23.10;99.90;;;;;;5124500;27;20023;-90
2021/09/08 06:10:56;;;;;;;0.32;0.22;;;24.20;98.70;;;;;;5128841;27;20034;-92
2021/09/08 06:13:21;;;;;;;0.45;0.45;;;25.20;95.70;;;;;;5122446;27;20043;-90
2021/09/08 06:15:47;;;;;;;0.50;0.50;;;26.30;94.30;;;;;;5124874;27;20595;-91
2021/09/08 06:18:13;;;;;;;0.40;0.40;;;26.20;92.50;;;;;;5128395;27;20080;-92
2021/09/08 06:20:38;;;;;;;1.40;0.20;;;26.80;91.50;;;;;;5120556;27;20516;-93
2021/09/08 06:23:04;;;;;;;0.47;0.27;;;27.70;89.80;;;;;;5128688;27;20038;-92
2021/09/08 06:25:30;;;;;;;0.40;0.40;;;28.80;85.10;;;;;;5126038;27;20022;-92
2021/09/08 06:27:56;;;;;;;0.10;0.10;;;29.70;82.50;;;;;;5116745;27;20458;-91
2021/09/08 06:30:22;;;;;;;0.30;0.30;;;29.40;78.50;;;;;;5121294;27;20615;-91
2021/09/08 06:32:47;;;;;;;0.20;0.20;;;29.70;77.70;;;;;;5120480;27;20821;-92
2021/09/08 06:35:13;;;;;;;0.30;0.27;;;30.00;78.20;;;;;;5128172;27;20027;-92
2021/09/08 06:37:39;;;;;;;0.10;0.10;;;29.20;73.60;;;;;;5126626;27;20272;-91
2021/09/08 06:40:05;;;;;;;0.40;0.28;;;29.90;70.80;;;;;;5123458;27;20663;-93
2021/09/08 06:42:31;;;;;;;0.13;0.05;;;30.20;68.20;;;;;;5124697;27;20051;-91
2021/09/08 06:44:57;;;;;;;0.40;0.40;;;30.00;66.80;;;;;;5122847;27;20024;-93
2021/09/08 06:47:23;;;;;;;0.13;0.13;;;31.00;64.50;;;;;;5126736;27;20055;-93
2021/09/08 06:49:50;;;;;;;0.10;0.10;;;31.70;60.00;;;;;;5112666;27;20436;-93
2021/09/08 06:52:15;;;;;;;0.00;0.00;;;31.00;61.40;;;;;;5116435;27;20508;-93
2021/09/08 06:54:41;;;;;;;0.90;0.45;;;31.70;58.20;;;;;;5122360;27;20121;-92
2021/09/08 06:57:09;;;;;;;0.20;0.20;;;32.50;54.50;;;;;;5125047;27;20027;-93
2021/09/08 06:59:35;;;;;;;0.22;0.22;;;33.70;56.00;;;;;;5124911;27;20036;-92
2021/09/08 07:02:00;;;;;;;5.88;1.55;;;33.80;51.50;;;;;;5109434;28;20035;-93
2021/09/08 07:04:27;;;;;;;0.08;0.05;;;32.60;52.90;;;;;;5129097;27;20403;-93
2021/09/08 07:06:52;;;;;;;;;;;33.20;49.90;;;;;;5128867;27;20143;-93
2021/09/08 07:09:18;;;;;;;0.75;0.75;;;34.30;46.20;;;;;;5125688;27;19994;-93
2021/09/08 07:11:44;;;;;;;0.17;0.15;;;34.00;41.50;;;;;;5127431;27;20073;-92
2021/09/08 07:14:09;;;;;;;0.10;0.10;;;33.90;43.40;;;;;;5126770;27;20091;-92
2021/09/08 07:16:35;;;;;;;0.22;0.20;;;34.40;39.90;;;;;;5127627;27;20095;-93
2021/09/08 07:19:01;;;;;;;0.20;0.20;;;35.50;35.80;;;;;;5118257;27;20036;-94
2021/09/08 07:21:26;;;;;;;0.00;0.00;;;35.00;41.30;;;;;;5118721;27;20046;-94
2021/09/08 07:23:52;;;;;;;0.98;0.80;;;35.10;41.10;;;;;;5124437;27;20437;-92
2021/09/08 07:26:18;;;;;;;0.40;0.30;;;34.10;42.60;;;;;;5115178;27;20039;-92
2021/09/08 07:28:43;;;;;;;4.32;0.17;;;33.60;43.80;;;;;;5106388;28;20020;-92
2021/09/08 07:31:09;;;;;;;0.60;0.43;;;34.80;38.60;;;;;;5123212;27;20031;-92
2021/09/08 07:33:35;;;;;;;0.20;0.03;;;35.60;35.70;;;;;;5121802;27;20039;-93
2021/09/08 07:36:00;;;;;;;0.20;0.20;;;35.60;34.70;;;;;;5110432;27;20033;-93
2021/09/08 07:38:27;;;;;;;0.28;0.10;;;36.30;32.20;;;;;;5108801;27;20096;-94
2021/09/08 07:40:53;;;;;;;0.08;0.08;;;37.00;30.30;;;;;;5128148;27;20027;-93
2021/09/08 07:43:18;;;;;;;1.40;0.65;;;36.80;25.00;;;;;;5121519;27;20061;-93
2021/09/08 07:45:46;;;;;;;0.20;0.20;;;37.60;29.10;;;;;;5120170;27;20034;-93
2021/09/08 07:48:13;;;;;;;0.10;0.10;;;37.40;26.60;;;;;;5115826;27;20019;-93
2021/09/08 07:50:38;;;;;;;1.55;0.65;;;38.40;22.80;;;;;;5125767;27;20019;-91
2021/09/08 07:53:08;;;;;;;0.10;0.10;;;37.70;21.70;;;;;;5126383;27;20023;-92
2021/09/08 07:55:35;;;;;;;0.22;0.17;;;34.80;26.20;;;;;;5121226;28;20080;-93
2021/09/08 07:58:01;;;;;;;0.68;0.57;;;32.00;31.60;;;;;;5118192;27;20027;-94
2021/09/08 08:00:27;;;;;;;0.10;0.10;;;32.30;33.70;;;;;;5118037;27;20023;-93
2021/09/08 08:02:52;;;;;;;0.10;0.10;;;32.30;38.40;;;;;;5124447;28;20035;-93
2021/09/08 08:05:19;;;;;;;0.15;0.15;;;34.10;34.00;;;;;;5124709;28;20129;-92
2021/09/08 08:07:46;;;;;;;0.00;0.00;;;36.20;26.70;;;;;;5106303;28;20036;-93
2021/09/08 08:10:14;;;;;;;0.30;0.15;;;37.10;22.60;;;;;;5117251;28;20057;-92
2021/09/08 08:12:40;;;;;;;0.70;0.70;;;36.90;19.50;;;;;;5125190;27;20030;-93
2021/09/08 08:15:06;;;;;;;;;;;36.80;20.10;;;;;;5119676;27;20108;-93
2021/09/08 08:17:33;;;;;;;0.10;0.10;;;36.00;22.20;;;;;;5122347;27;20412;-93
2021/09/08 08:19:59;;;;;;;0.03;0.03;;;37.10;20.50;;;;;;5123345;28;20053;-93
2021/09/08 08:22:25;;;;;;;1.98;0.57;;;37.70;19.60;;;;;;5123836;27;20039;-93
2021/09/08 08:24:50;;;;;;;;;;;38.70;17.30;;;;;;5122973;27;20075;-93
2021/09/08 08:27:16;;;;;;;0.70;0.35;;;37.00;15.00;;;;;;5129643;27;19908;-92
2021/09/08 08:29:42;;;;;;;;;;;35.90;17.90;;;;;;5127621;27;20124;-93
2021/09/08 08:32:08;;;;;;;0.10;0.10;;;35.20;18.90;;;;;;5128895;27;19911;-92
2021/09/08 08:34:34;;;;;;;0.10;0.10;;;35.00;21.00;;;;;;5123332;27;20037;-93
2021/09/08 08:37:00;;;;;;;0.20;0.17;;;34.00;20.00;;;;;;5125431;27;20039;-92
2021/09/08 08:39:25;;;;;;;0.10;0.10;;;32.90;24.90;;;;;;5127100;27;20035;-93
2021/09/08 08:41:51;;;;;;;0.20;0.20;;;36.90;16.20;;;;;;5129580;27;20427;-92
2021/09/08 08:44:18;;;;;;;;;;;36.60;15.80;;;;;;5128487;27;20027;-92
2021/09/08 08:46:44;;;;;;;2.25;0.52;;;38.50;12.60;;;;;;5124167;27;19926;-92
2021/09/08 08:49:10;;;;;;;;;;;39.00;10.90;;;;;;5126049;27;20389;-93
2021/09/08 08:51:36;;;;;;;0.20;0.20;;;39.60;6.50;;;;;;5120313;27;19911;-92
2021/09/08 08:54:01;;;;;;;;;;;40.80;5.20;;;;;;5118432;27;20027;-92
2021/09/08 08:56:27;;;;;;;0.40;0.40;;;37.20;7.90;;;;;;5110740;27;19912;-92
2021/09/08 08:58:56;;;;;;;;;;;36.60;13.50;;;;;;5114812;27;20066;-93
2021/09/08 09:01:23;;;;;;;2.42;0.70;;;38.70;9.20;;;;;;5124654;27;19915;-93
2021/09/08 09:04:01;;;;;;;0.57;0.20;;;38.50;9.70;;;;;;5115619;27;20043;-93
2021/09/08 09:06:28;;;;;;;0.03;0.03;;;37.40;10.90;;;;;;5116271;27;20068;-94
2021/09/08 09:09:06;;;;;;;5.18;0.95;;;36.40;13.20;;;;;;5117652;27;20035;-92
2021/09/08 09:11:32;;;;;;;0.20;0.20;;;35.30;17.60;;;;;;5126592;27;20034;-92
2021/09/08 09:14:00;;;;;;;0.05;0.05;;;36.40;14.10;;;;;;5109786;28;20027;-93
2021/09/08 09:16:27;;;;;;;1.20;0.60;;;34.30;18.00;;;;;;5129502;27;20023;-93
2021/09/08 09:18:53;;;;;;;0.25;0.20;;;32.40;22.00;;;;;;5127793;27;20424;-92
2021/09/08 09:21:19;;;;;;;0.00;0.00;;;31.90;23.50;;;;;;5129208;27;20038;-93
2021/09/08 09:23:47;;;;;;;1.77;0.93;;;31.70;24.20;;;;;;5126242;27;20031;-93
2021/09/08 09:26:19;;;;;;;1.27;0.52;;;30.10;28.90;;;;;;5116942;27;20031;-92
2021/09/08 09:28:44;;;;;;;0.60;0.20;;;29.50;31.30;;;;;;5108872;28;20028;-91
2021/09/08 09:31:28;;;;;;;0.00;0.00;;;31.90;26.60;;;;;;5121993;27;20037;-92
2021/09/08 09:33:55;;;;;;;3.97;0.50;;;30.00;30.00;;;;;;5123460;27;20035;-92
2021/09/08 09:36:31;;;;;;;0.08;0.08;;;29.50;32.20;;;;;;5126620;27;20031;-92
2021/09/08 09:38:58;;;;;;;0.38;0.38;;;30.10;30.80;;;;;;5123920;27;20027;-92
2021/09/08 09:41:26;;;;;;;2.08;0.32;;;29.80;31.10;;;;;;5111521;27;20046;-90
2021/09/08 09:43:52;;;;;;;0.30;0.08;;;29.50;43.10;;;;;;5130432;27;20034;-92
2021/09/08 09:46:19;;;;;;;0.00;0.00;;;30.30;31.40;;;;;;5126701;27;20035;-92
2021/09/08 09:48:44;;;;;;;0.30;0.30;;;30.90;30.30;;;;;;5125545;27;20039;-92
2021/09/08 09:51:13;;;;;;;0.45;0.43;;;30.50;29.80;;;;;;5123707;27;20036;-92
2021/09/08 09:53:40;;;;;;;0.20;0.20;;;30.80;30.10;;;;;;5127837;27;20023;-92
2021/09/08 09:56:06;;;;;;;0.20;0.20;;;33.40;27.60;;;;;;5128993;27;20039;-92
2021/09/08 09:58:35;;;;;;;0.05;0.05;;;33.50;24.50;;;;;;5107987;28;20051;-92
2021/09/08 10:01:02;;;;;;;0.57;0.50;;;33.50;24.30;;;;;;5122673;27;20047;-91
2021/09/08 10:03:28;;;;;;;0.17;0.17;;;31.80;25.90;;;;;;5127897;27;20065;-91
2021/09/08 10:05:54;;;;;;;0.30;0.30;;;32.80;26.30;;;;;;5127940;27;20040;-93
2021/09/08 10:08:24;;;;;;;0.28;0.10;;;32.50;23.80;;;;;;5127438;27;20040;-93
2021/09/08 10:10:52;;;;;;;0.38;0.35;;;32.90;23.90;;;;;;5129759;27;20030;-91
2021/09/08 10:13:22;;;;;;;0.10;0.10;;;36.70;18.00;;;;;;5122392;27;20104;-92
2021/09/08 10:15:51;;;;;;;0.05;0.05;;;37.30;14.10;;;;;;5123414;27;20035;-92
2021/09/08 10:18:21;;;;;;;0.00;0.00;;;37.10;16.60;;;;;;5125010;27;20035;-92
2021/09/08 10:20:52;;;;;;;0.08;0.08;;;38.70;9.50;;;;;;5126633;27;20534;-92
2021/09/08 10:23:18;;;;;;;1.40;0.47;;;36.80;10.50;;;;;;5128595;27;20587;-92
2021/09/08 10:25:47;;;;;;;0.10;0.10;;;37.20;10.10;;;;;;5127987;27;20027;-91
2021/09/08 10:28:15;;;;;;;0.17;0.10;;;35.20;12.60;;;;;;5112845;27;20042;-92
2021/09/08 10:30:42;;;;;;;0.22;0.20;;;34.60;18.20;;;;;;5123961;27;20027;-93
2021/09/08 10:33:08;;;;;;;0.13;0.13;;;33.60;20.40;;;;;;5120487;27;20039;-91
2021/09/08 10:35:38;;;;;;;3.92;0.80;;;32.50;24.30;;;;;;5127359;27;20023;-92
2021/09/08 10:38:13;;;;;;;0.25;0.10;;;32.40;23.40;;;;;;5128585;27;20042;-92
2021/09/08 10:40:39;;;;;;;0.25;0.25;;;32.60;24.90;;;;;;5123126;27;20027;-92
2021/09/08 10:43:05;;;;;;;0.25;0.25;;;34.80;22.60;;;;;;5126355;27;20031;-91
2021/09/08 10:45:32;;;;;;;0.52;0.52;;;33.90;21.80;;;;;;5120744;27;20092;-93
2021/09/08 10:48:00;;;;;;;0.32;0.30;;;32.20;24.60;;;;;;5118801;27;20031;-92
2021/09/08 10:50:35;;;;;;;0.43;0.43;;;31.90;25.50;;;;;;5113330;27;20028;-92
2021/09/08 10:53:22;;;;;;;3.58;0.52;;;31.70;26.50;;;;;;5116750;27;20114;-93
2021/09/08 10:55:50;;;;;;;0.00;0.00;;;31.70;26.90;;;;;;5124225;27;20408;-91
2021/09/08 10:58:16;;;;;;;0.15;0.15;;;31.80;26.30;;;;;;5111901;27;20193;-92
2021/09/08 11:00:43;;;;;;;0.73;0.73;;;31.50;27.40;;;;;;5108277;27;20564;-92
2021/09/08 11:03:15;;;;;;;0.28;0.28;;;31.10;28.30;;;;;;5115834;27;20104;-91
2021/09/08 11:06:00;;;;;;;0.17;0.13;;;31.10;28.70;;;;;;5112096;27;20031;-92
2021/09/08 11:08:30;;;;;;;2.25;0.70;;;30.30;29.80;;;;;;5114235;27;20404;-93
2021/09/08 11:11:12;;;;;;;0.38;0.30;;;30.80;31.00;;;;;;5108211;28;20595;-93
2021/09/08 11:13:39;;;;;;;0.00;0.00;;;30.20;30.00;;;;;;5113534;27;20031;-92
2021/09/08 11:16:24;;;;;;;0.10;0.10;;;30.80;31.30;;;;;;5126051;27;20030;-92
2021/09/08 11:18:52;;;;;;;0.25;0.25;;;31.10;28.10;;;;;;5118860;27;20091;-91
2021/09/08 11:21:22;;;;;;;0.22;0.22;;;31.00;27.80;;;;;;5116701;27;20039;-92
2021/09/08 11:23:49;;;;;;;0.88;0.70;;;30.30;28.90;;;;;;5110793;27;20976;-92
2021/09/08 11:26:15;;;;;;;2.10;0.70;;;30.20;28.10;;;;;;5125161;27;20034;-92
2021/09/08 11:28:41;;;;;;;0.13;0.08;;;29.50;31.60;;;;;;5127638;27;20031;-92
2021/09/08 11:31:18;;;;;;;0.15;0.15;;;31.00;30.00;;;;;;5119541;27;20038;-91
2021/09/08 11:33:44;;;;;;;0.47;0.40;;;29.10;34.10;;;;;;5118578;27;20042;-92
2021/09/08 11:36:15;;;;;;;0.10;0.10;;;29.20;33.60;;;;;;5113649;27;20027;-92
2021/09/08 11:38:47;;;;;;;1.92;0.17;;;29.70;31.70;;;;;;5118942;27;20032;-92
2021/09/08 11:41:14;;;;;;;3.50;0.80;;;30.00;32.40;;;;;;5105925;28;20088;-92
2021/09/08 11:43:49;;;;;;;0.82;0.65;;;28.80;34.00;;;;;;5112061;27;20039;-92
2021/09/08 11:46:25;;;;;;;0.28;0.28;;;28.40;37.00;;;;;;5115746;27;20783;-92
2021/09/08 11:48:52;;;;;;;0.40;0.40;;;28.10;38.60;;;;;;5114032;27;20063;-92
2021/09/08 11:51:23;;;;;;;0.15;0.10;;;28.40;36.30;;;;;;5124078;27;20023;-90
2021/09/08 11:53:54;;;;;;;0.40;0.40;;;28.40;38.60;;;;;;5121881;27;20043;-92
2021/09/08 11:56:26;;;;;;;0.30;0.30;;;28.90;37.20;;;;;;5123533;27;20345;-91
2021/09/08 11:59:03;;;;;;;3.67;0.47;;;29.20;34.60;;;;;;5122014;27;20078;-92
2021/09/08 12:01:35;;;;;;;0.40;0.40;;;28.10;37.90;;;;;;5119429;27;20023;-92
2021/09/08 12:04:02;;;;;;;0.28;0.28;;;28.70;38.10;;;;;;5125592;27;20031;-92
2021/09/08 12:06:30;;;;;;;0.15;0.15;;;29.70;35.40;;;;;;5120764;28;20118;-92
2021/09/08 12:09:09;;;;;;;0.55;0.55;;;30.10;33.40;;;;;;5113757;28;20027;-91
2021/09/08 12:11:45;;;;;;;1.58;0.40;;;29.90;34.60;;;;;;5108150;28;20040;-93
2021/09/08 12:14:43;;;;;;;0.20;0.20;;;28.30;38.10;;;;;;5127178;27;20393;-92
2021/09/08 12:17:11;;;;;;;0.10;0.10;;;28.90;39.30;;;;;;5120794;28;20035;-92
2021/09/08 12:19:40;;;;;;;0.30;0.30;;;29.60;36.30;;;;;;5113131;28;20572;-93
2021/09/08 12:22:06;;;;;;;0.68;0.32;;;29.50;36.70;;;;;;5117735;28;20035;-91
2021/09/08 12:24:48;;;;;;;1.45;0.90;;;30.20;35.50;;;;;;5125636;27;20027;-92
2021/09/08 12:27:32;;;;;;;0.38;0.20;;;30.50;33.70;;;;;;5120876;28;20039;-92
2021/09/08 12:29:59;;;;;;;0.20;0.20;;;29.50;34.80;;;;;;5122902;27;20035;-91
2021/09/08 12:32:50;;;;;;;0.55;0.55;;;29.50;37.40;;;;;;5110423;27;20134;-90
2021/09/08 12:35:42;;;;;;;0.20;0.20;;;29.40;36.20;;;;;;5121974;28;20023;-93
2021/09/08 12:38:34;;;;;;;1.17;0.60;;;29.20;37.30;;;;;;5108089;28;20032;-92
2021/09/08 12:41:09;;;;;;;0.88;0.28;;;27.80;41.60;;;;;;5107174;28;20043;-92
2021/09/08 12:43:35;;;;;;;0.85;0.85;;;28.70;40.20;;;;;;5124528;27;20039;-91
2021/09/08 12:46:01;;;;;;;1.20;0.70;;;29.20;38.40;;;;;;5118961;28;20114;-92
2021/09/08 12:48:27;;;;;;;0.98;0.35;;;29.40;36.70;;;;;;5122865;28;20114;-93
2021/09/08 12:50:54;;;;;;;1.65;0.85;;;28.90;37.40;;;;;;5121824;28;20185;-92
2021/09/08 12:53:19;;;;;;;0.28;0.28;;;28.40;38.60;;;;;;5122448;28;20027;-91